createdAt,value
2022-08-24T00:01:49.623Z,2.42
2022-08-24T00:04:17.395Z,2.70
2022-08-24T00:06:44.505Z,2.38
2022-08-24T00:09:11.592Z,2.30
2022-08-24T00:11:38.625Z,2.15
2022-08-24T00:14:05.727Z,2.17
2022-08-24T00:16:32.927Z,2.05
2022-08-24T00:19:00.588Z,2.45
2022-08-24T00:21:27.743Z,2.38
2022-08-24T00:23:54.866Z,2.55
2022-08-24T00:26:28.433Z,2.88
2022-08-24T00:28:56.224Z,2.40
2022-08-24T00:31:23.341Z,2.63
2022-08-24T00:33:50.717Z,2.60
2022-08-24T00:36:17.792Z,2.60
2022-08-24T00:38:44.988Z,2.45
2022-08-24T00:41:14.230Z,2.40
2022-08-24T00:43:51.226Z,2.50
2022-08-24T00:46:20.342Z,2.20
2022-08-24T00:48:50.123Z,2.50
2022-08-24T00:51:20.260Z,2.22
2022-08-24T00:53:49.788Z,2.22
2022-08-24T00:56:19.927Z,2.50
2022-08-24T00:58:57.204Z,2.13
2022-08-24T01:01:24.552Z,2.58
2022-08-24T01:03:56.644Z,2.42
2022-08-24T01:06:24.262Z,2.38
2022-08-24T01:08:56.862Z,2.50
2022-08-24T01:11:25.291Z,2.50
2022-08-24T01:13:53.441Z,2.60
2022-08-24T01:16:41.430Z,2.50
2022-08-24T01:19:14.840Z,2.70
2022-08-24T01:21:46.595Z,2.60
2022-08-24T01:24:14.573Z,3.13
2022-08-24T01:26:46.989Z,3.67
2022-08-24T01:29:16.769Z,2.90
2022-08-24T01:31:44.028Z,3.10
2022-08-24T01:34:13.217Z,2.47
2022-08-24T01:36:42.737Z,2.30
2022-08-24T01:39:30.066Z,2.85
2022-08-24T01:41:57.734Z,2.60
2022-08-24T01:44:25.864Z,2.63
2022-08-24T01:46:53.789Z,2.83
2022-08-24T01:49:22.477Z,2.78
2022-08-24T01:51:49.557Z,2.80
2022-08-24T01:54:17.273Z,3.00
2022-08-24T01:56:44.460Z,3.10
2022-08-24T01:59:12.703Z,2.95
2022-08-24T02:01:41.925Z,2.60
2022-08-24T02:04:09.559Z,3.10
2022-08-24T02:06:37.003Z,2.65
2022-08-24T02:09:04.628Z,3.47
2022-08-24T02:11:32.204Z,3.95
2022-08-24T02:13:59.453Z,3.42
2022-08-24T02:16:28.612Z,3.80
2022-08-24T02:18:56.168Z,3.53
2022-08-24T02:21:23.406Z,3.67
2022-08-24T02:23:50.832Z,4.53
2022-08-24T02:26:18.043Z,4.10
2022-08-24T02:28:45.112Z,4.07
2022-08-24T02:31:13.353Z,4.05
2022-08-24T02:33:40.903Z,4.05
2022-08-24T02:36:21.765Z,4.70
2022-08-24T02:38:54.311Z,4.32
2022-08-24T02:41:21.962Z,4.45
2022-08-24T02:43:49.022Z,4.45
2022-08-24T02:46:20.051Z,4.28
2022-08-24T02:48:47.385Z,4.60
2022-08-24T02:51:32.218Z,4.35
2022-08-24T02:54:11.416Z,4.60
2022-08-24T02:56:38.505Z,3.83
2022-08-24T02:59:05.554Z,3.55
2022-08-24T03:01:32.699Z,3.60
2022-08-24T03:03:59.808Z,3.70
2022-08-24T03:06:26.909Z,3.95
2022-08-24T03:08:56.425Z,4.10
2022-08-24T03:11:27.725Z,4.03
2022-08-24T03:13:55.957Z,4.45
2022-08-24T03:16:23.045Z,3.70
2022-08-24T03:18:50.235Z,3.88
2022-08-24T03:21:17.537Z,4.43
2022-08-24T03:23:44.656Z,4.68
2022-08-24T03:26:12.300Z,4.50
2022-08-24T03:28:39.919Z,4.43
2022-08-24T03:31:07.404Z,3.97
2022-08-24T03:33:34.526Z,3.97
2022-08-24T03:36:01.656Z,4.55
2022-08-24T03:38:29.988Z,4.18
2022-08-24T03:40:57.163Z,4.13
2022-08-24T03:43:42.949Z,4.53
2022-08-24T03:46:12.360Z,4.40
2022-08-24T03:48:40.524Z,4.22
2022-08-24T03:51:10.932Z,3.60
2022-08-24T03:53:39.825Z,3.80
2022-08-24T03:56:10.182Z,4.25
2022-08-24T03:58:38.396Z,4.10
2022-08-24T04:01:05.972Z,3.97
2022-08-24T04:03:35.945Z,3.83
2022-08-24T04:06:03.123Z,4.38
2022-08-24T04:08:30.904Z,4.60
2022-08-24T04:10:58.070Z,4.70
2022-08-24T04:13:25.149Z,4.50
2022-08-24T04:15:52.963Z,4.53
2022-08-24T04:18:20.286Z,4.47
2022-08-24T04:20:47.419Z,4.72
2022-08-24T04:23:15.301Z,4.20
2022-08-24T04:25:43.322Z,4.95
2022-08-24T04:28:10.922Z,5.28
2022-08-24T04:30:42.198Z,5.30
2022-08-24T04:33:10.382Z,5.82
2022-08-24T04:35:38.892Z,5.90
2022-08-24T04:38:06.133Z,5.75
2022-08-24T04:40:33.317Z,5.55
2022-08-24T04:43:01.484Z,5.72
2022-08-24T04:45:29.441Z,5.57
2022-08-24T04:47:56.614Z,5.57
2022-08-24T04:50:24.710Z,5.60
2022-08-24T04:52:52.236Z,5.60
2022-08-24T04:55:19.657Z,5.53
2022-08-24T04:57:46.761Z,6.30
2022-08-24T05:00:14.078Z,5.22
2022-08-24T05:02:44.880Z,5.80
2022-08-24T05:05:12.564Z,5.43
2022-08-24T05:07:39.750Z,5.18
2022-08-24T05:10:07.560Z,4.93
2022-08-24T05:12:36.075Z,4.72
2022-08-24T05:15:03.222Z,5.03
2022-08-24T05:17:30.737Z,5.55
2022-08-24T05:19:58.711Z,6.25
2022-08-24T05:22:25.918Z,6.22
2022-08-24T05:24:53.006Z,5.75
2022-08-24T05:27:20.127Z,5.47
2022-08-24T05:29:53.358Z,2.40
2022-08-24T05:32:20.523Z,4.22
2022-08-24T05:34:47.695Z,5.03
2022-08-24T05:37:14.807Z,5.75
2022-08-24T05:39:42.193Z,4.80
2022-08-24T05:42:09.776Z,4.30
2022-08-24T05:44:37.507Z,4.78
2022-08-24T05:47:04.660Z,6.88
2022-08-24T05:49:31.788Z,6.38
2022-08-24T05:51:58.947Z,6.40
2022-08-24T05:54:26.922Z,6.72
2022-08-24T05:56:54.785Z,7.22
2022-08-24T05:59:22.596Z,7.65
2022-08-24T06:01:49.881Z,7.70
2022-08-24T06:04:16.991Z,8.38
2022-08-24T06:06:44.145Z,7.97
2022-08-24T06:09:15.689Z,9.20
2022-08-24T06:11:43.177Z,9.65
2022-08-24T06:14:12.129Z,9.10
2022-08-24T06:16:42.491Z,9.93
2022-08-24T06:19:10.966Z,10.80
2022-08-24T06:21:38.328Z,11.15
2022-08-24T06:24:06.099Z,12.13
2022-08-24T06:26:52.132Z,11.43
2022-08-24T06:29:19.673Z,8.95
2022-08-24T06:31:48.433Z,8.65
2022-08-24T06:34:21.895Z,8.77
2022-08-24T06:36:48.994Z,9.25
2022-08-24T06:39:16.081Z,9.15
2022-08-24T06:41:44.205Z,10.45
2022-08-24T06:44:11.343Z,14.07
2022-08-24T06:46:38.504Z,9.43
2022-08-24T06:49:05.729Z,7.22
2022-08-24T06:51:32.856Z,10.07
2022-08-24T06:54:00.801Z,8.80
2022-08-24T06:56:28.056Z,13.32
2022-08-24T06:58:55.431Z,15.20
2022-08-24T07:01:23.941Z,13.80
2022-08-24T07:03:51.452Z,7.65
2022-08-24T07:06:18.969Z,7.28
2022-08-24T07:08:46.103Z,6.10
2022-08-24T07:11:17.951Z,4.30
2022-08-24T07:13:47.321Z,6.50
2022-08-24T07:16:14.930Z,11.15
2022-08-24T07:18:44.083Z,7.13
2022-08-24T07:21:14.633Z,7.43
2022-08-24T07:23:42.820Z,7.15
2022-08-24T07:26:20.796Z,8.88
2022-08-24T07:28:48.973Z,6.25
2022-08-24T07:31:16.091Z,4.18
2022-08-24T07:33:43.313Z,12.60
2022-08-24T07:36:10.540Z,8.95
2022-08-24T07:38:44.103Z,7.18
2022-08-24T07:41:36.525Z,10.30
2022-08-24T07:43:58.638Z,5.65
2022-08-24T07:46:25.806Z,7.68
2022-08-24T07:49:00.205Z,2.70
2022-08-24T07:51:39.354Z,2.72
2022-08-24T07:54:13.414Z,7.32
2022-08-24T07:56:40.853Z,5.53
2022-08-24T07:59:12.439Z,4.57
2022-08-24T08:01:40.591Z,10.32
2022-08-24T08:04:07.843Z,9.27
2022-08-24T08:06:35.052Z,8.40
2022-08-24T08:09:04.622Z,7.50
2022-08-24T08:11:31.846Z,7.05
2022-08-24T08:13:58.908Z,9.98
2022-08-24T08:16:26.363Z,6.20
2022-08-24T08:19:09.315Z,6.10
2022-08-24T08:22:00.228Z,3.13
2022-08-24T08:24:27.346Z,5.43
2022-08-24T08:26:54.559Z,6.10
2022-08-24T08:29:21.723Z,6.43
2022-08-24T08:31:48.785Z,6.32
2022-08-24T08:34:17.056Z,7.13
2022-08-24T08:36:44.131Z,6.63
2022-08-24T08:39:12.747Z,4.35
2022-08-24T08:41:58.995Z,5.07
2022-08-24T08:44:33.158Z,5.32
2022-08-24T08:47:06.067Z,5.45
2022-08-24T08:49:55.216Z,5.88
2022-08-24T08:52:24.719Z,7.28
2022-08-24T08:54:58.677Z,6.80
2022-08-24T08:57:32.625Z,5.88
2022-08-24T09:00:06.185Z,5.10
2022-08-24T09:02:45.677Z,5.03
2022-08-24T09:05:32.677Z,5.10
2022-08-24T09:07:59.709Z,5.95
2022-08-24T09:10:33.723Z,3.40
2022-08-24T09:13:19.377Z,6.72
2022-08-24T09:15:49.561Z,5.00
2022-08-24T09:18:30.464Z,5.47
2022-08-24T09:21:14.585Z,6.13
2022-08-24T09:24:01.269Z,5.20
2022-08-24T09:26:29.055Z,4.88
2022-08-24T09:29:17.430Z,6.13
2022-08-24T09:31:45.264Z,5.55
2022-08-24T09:34:15.864Z,4.30
2022-08-24T09:37:01.529Z,4.65
2022-08-24T09:39:46.627Z,3.15
2022-08-24T09:42:13.665Z,3.10
2022-08-24T09:45:03.781Z,2.72
2022-08-24T09:47:49.388Z,2.80
2022-08-24T09:50:36.720Z,2.70
2022-08-24T09:53:03.986Z,2.88
2022-08-24T09:55:40.230Z,3.47
2022-08-24T09:58:18.815Z,5.22
2022-08-24T10:00:47.642Z,3.70
2022-08-24T10:03:17.750Z,2.75
2022-08-24T10:05:57.745Z,3.20
2022-08-24T10:08:34.168Z,3.83
2022-08-24T10:11:07.016Z,4.60
2022-08-24T10:13:45.020Z,3.63
2022-08-24T10:16:17.976Z,4.85
2022-08-24T10:18:45.031Z,4.53
2022-08-24T10:21:25.594Z,3.60
2022-08-24T10:23:58.860Z,3.88
2022-08-24T10:26:34.978Z,3.40
2022-08-24T10:29:20.563Z,4.55
2022-08-24T10:31:48.415Z,4.75
2022-08-24T10:34:24.492Z,4.00
2022-08-24T10:36:57.364Z,4.35
2022-08-24T10:39:43.305Z,4.07
2022-08-24T10:42:48.191Z,3.22
2022-08-24T10:45:15.265Z,3.20
2022-08-24T10:47:54.893Z,3.85
2022-08-24T10:50:40.890Z,4.15
2022-08-24T10:53:18.895Z,2.90
2022-08-24T10:55:46.115Z,3.95
2022-08-24T10:58:13.451Z,4.72
2022-08-24T11:00:41.105Z,3.58
2022-08-24T11:03:11.119Z,3.03
2022-08-24T11:05:41.187Z,3.78
2022-08-24T11:08:08.438Z,3.15
2022-08-24T11:10:39.574Z,3.20
2022-08-24T11:13:18.607Z,3.45
2022-08-24T11:15:51.450Z,3.63
2022-08-24T11:18:18.718Z,2.92
2022-08-24T11:20:47.978Z,3.03
2022-08-24T11:23:21.726Z,2.47
2022-08-24T11:26:03.002Z,3.25
2022-08-24T11:28:41.062Z,2.90
2022-08-24T11:31:30.916Z,2.85
2022-08-24T11:34:04.091Z,2.75
2022-08-24T11:36:34.793Z,2.50
2022-08-24T11:39:11.080Z,2.58
2022-08-24T11:41:45.985Z,2.65
2022-08-24T11:44:18.935Z,2.50
2022-08-24T11:46:56.903Z,2.70
2022-08-24T11:49:28.342Z,2.58
2022-08-24T11:52:01.981Z,2.80
2022-08-24T11:54:53.244Z,2.70
2022-08-24T11:57:26.558Z,2.88
2022-08-24T11:59:53.637Z,2.45
2022-08-24T12:02:32.129Z,2.42
2022-08-24T12:05:17.917Z,2.50
2022-08-24T12:08:04.132Z,2.63
2022-08-24T12:10:50.236Z,2.22
2022-08-24T12:13:17.292Z,2.80
2022-08-24T12:15:51.991Z,2.40
2022-08-24T12:18:25.323Z,2.63
2022-08-24T12:20:53.717Z,3.00
2022-08-24T12:23:39.269Z,2.30
2022-08-24T12:26:10.409Z,2.30
2022-08-24T12:28:40.698Z,2.00
2022-08-24T12:31:14.047Z,2.05
2022-08-24T12:33:44.854Z,2.30
2022-08-24T12:36:18.050Z,2.50
2022-08-24T12:38:49.171Z,2.70
2022-08-24T12:41:19.901Z,2.50
2022-08-24T12:43:54.215Z,2.40
2022-08-24T12:46:23.070Z,2.55
2022-08-24T12:48:57.156Z,2.90
2022-08-24T12:51:24.213Z,3.28
2022-08-24T12:53:51.305Z,2.90
2022-08-24T12:56:27.282Z,2.45
2022-08-24T12:59:02.811Z,2.72
2022-08-24T13:01:35.766Z,2.72
2022-08-24T13:04:23.250Z,2.55
2022-08-24T13:06:56.335Z,2.70
2022-08-24T13:09:32.548Z,2.35
2022-08-24T13:12:00.965Z,2.22
2022-08-24T13:14:29.868Z,2.35
2022-08-24T13:16:56.900Z,1.85
2022-08-24T13:19:23.964Z,2.30
2022-08-24T13:21:54.423Z,2.35
2022-08-24T13:24:30.988Z,2.13
2022-08-24T13:27:07.147Z,2.28
2022-08-24T13:29:34.761Z,2.00
2022-08-24T13:32:02.031Z,2.20
2022-08-24T13:34:38.120Z,2.17
2022-08-24T13:37:12.182Z,2.20
2022-08-24T13:39:39.240Z,2.10
2022-08-24T13:42:24.985Z,2.33
2022-08-24T13:45:13.530Z,2.33
2022-08-24T13:47:48.167Z,3.45
2022-08-24T13:50:34.160Z,2.20
2022-08-24T13:53:18.819Z,2.28
2022-08-24T13:55:48.491Z,2.10
2022-08-24T13:58:26.912Z,2.72
2022-08-24T14:01:07.419Z,2.17
2022-08-24T14:03:53.305Z,2.28
2022-08-24T14:06:24.471Z,2.58
2022-08-24T14:09:00.039Z,2.42
2022-08-24T14:11:47.628Z,2.60
2022-08-24T14:14:34.506Z,2.42
2022-08-24T14:17:35.488Z,2.38
2022-08-24T14:20:06.365Z,2.35
2022-08-24T14:22:36.709Z,2.22
2022-08-24T14:25:16.916Z,3.10
2022-08-24T14:27:49.267Z,2.65
2022-08-24T14:30:19.365Z,2.60
2022-08-24T14:32:58.735Z,1.98
2022-08-24T14:35:31.084Z,2.22
2022-08-24T14:38:12.791Z,2.58
2022-08-24T14:40:58.157Z,3.00
2022-08-24T14:43:43.954Z,2.63
2022-08-24T14:46:19.755Z,2.83
2022-08-24T14:48:46.838Z,2.90
2022-08-24T14:51:16.678Z,2.33
2022-08-24T14:53:43.717Z,2.55
2022-08-24T14:56:31.619Z,2.45
2022-08-24T14:59:28.124Z,2.38
2022-08-24T15:02:18.540Z,2.10
2022-08-24T15:04:52.781Z,2.67
2022-08-24T15:07:19.827Z,2.47
2022-08-24T15:09:47.317Z,2.25
2022-08-24T15:12:23.556Z,2.33
2022-08-24T15:14:55.527Z,2.90
2022-08-24T15:17:26.514Z,2.20
2022-08-24T15:20:01.286Z,2.13
2022-08-24T15:22:40.318Z,1.95
2022-08-24T15:25:14.137Z,1.67
2022-08-24T15:27:46.038Z,2.45
2022-08-24T15:30:22.592Z,2.53
2022-08-24T15:32:55.035Z,2.25
2022-08-24T15:35:31.458Z,2.70
2022-08-24T15:37:59.022Z,2.53
2022-08-24T15:40:31.633Z,2.67
2022-08-24T15:43:04.058Z,2.10
2022-08-24T15:45:31.989Z,2.80
2022-08-24T15:48:00.274Z,2.00
2022-08-24T15:50:35.647Z,2.22
2022-08-24T15:53:07.298Z,2.08
2022-08-24T15:55:36.437Z,2.40
2022-08-24T15:58:15.281Z,2.80
2022-08-24T16:01:01.254Z,2.25
2022-08-24T16:03:45.003Z,2.72
2022-08-24T16:06:18.119Z,2.33
2022-08-24T16:08:56.012Z,2.50
2022-08-24T16:11:28.601Z,2.45
2022-08-24T16:13:55.818Z,2.78
2022-08-24T16:16:32.393Z,2.50
2022-08-24T16:19:02.150Z,2.38
2022-08-24T16:21:47.409Z,2.10
2022-08-24T16:24:25.491Z,2.53
2022-08-24T16:26:54.823Z,2.58
2022-08-24T16:29:37.375Z,2.60
2022-08-24T16:32:21.868Z,2.97
2022-08-24T16:34:51.902Z,2.22
2022-08-24T16:37:20.404Z,2.60
2022-08-24T16:39:48.172Z,2.03
2022-08-24T16:42:26.931Z,2.05
2022-08-24T16:44:54.246Z,2.67
2022-08-24T16:47:22.064Z,2.40
2022-08-24T16:49:49.583Z,2.20
2022-08-24T16:52:17.319Z,2.67
2022-08-24T16:54:44.390Z,2.17
2022-08-24T16:57:16.168Z,2.40
2022-08-24T16:59:44.427Z,2.28
2022-08-24T17:02:12.330Z,2.40
2022-08-24T17:04:40.165Z,2.28
2022-08-24T17:07:08.502Z,2.40
2022-08-24T17:09:39.699Z,2.33
2022-08-24T17:12:08.200Z,2.38
2022-08-24T17:14:37.546Z,2.45
2022-08-24T17:17:06.178Z,2.40
2022-08-24T17:19:34.653Z,2.65
2022-08-24T17:22:01.772Z,2.60
2022-08-24T17:24:29.173Z,2.70
2022-08-24T17:26:56.888Z,2.60
2022-08-24T17:29:24.741Z,2.78
2022-08-24T17:31:52.391Z,2.40
2022-08-24T17:34:21.178Z,2.80
2022-08-24T17:36:53.397Z,2.70
2022-08-24T17:39:21.050Z,2.45
2022-08-24T17:41:48.510Z,2.40
2022-08-24T17:44:19.581Z,2.35
2022-08-24T17:46:49.188Z,2.85
2022-08-24T17:49:16.268Z,2.40
2022-08-24T17:51:43.705Z,2.60
2022-08-24T17:54:10.801Z,2.80
2022-08-24T17:56:40.981Z,2.65
2022-08-24T17:59:24.956Z,2.70
2022-08-24T18:02:12.328Z,2.83
2022-08-24T18:04:40.645Z,3.17
2022-08-24T18:07:12.532Z,3.08
2022-08-24T18:09:41.613Z,3.20
2022-08-24T18:12:09.376Z,3.00
2022-08-24T18:14:36.966Z,2.83
2022-08-24T18:17:05.956Z,2.88
2022-08-24T18:19:33.879Z,3.13
2022-08-24T18:22:01.838Z,3.20
2022-08-24T18:24:33.400Z,3.20
2022-08-24T18:27:10.370Z,3.55
2022-08-24T18:29:39.215Z,3.80
2022-08-24T18:32:07.140Z,4.53
2022-08-24T18:34:34.693Z,4.32
2022-08-24T18:37:01.973Z,3.33
2022-08-24T18:39:29.114Z,4.10
2022-08-24T18:41:56.628Z,3.80
2022-08-24T18:44:27.222Z,3.50
2022-08-24T18:46:58.412Z,3.47
2022-08-24T18:49:25.478Z,3.63
2022-08-24T18:51:52.685Z,3.75
2022-08-24T18:54:21.693Z,4.15
2022-08-24T18:56:49.639Z,3.25
2022-08-24T18:59:18.528Z,3.70
2022-08-24T19:02:05.939Z,4.13
2022-08-24T19:04:33.601Z,3.58
2022-08-24T19:07:00.904Z,3.95
2022-08-24T19:09:32.044Z,4.32
2022-08-24T19:12:01.245Z,4.38
2022-08-24T19:14:28.376Z,4.15
2022-08-24T19:16:55.467Z,3.90
2022-08-24T19:19:22.733Z,3.40
2022-08-24T19:21:50.066Z,3.75
2022-08-24T19:24:18.957Z,4.00
2022-08-24T19:26:46.025Z,4.15
2022-08-24T19:29:13.151Z,3.95
2022-08-24T19:31:40.292Z,5.70
2022-08-24T19:34:07.547Z,4.53
2022-08-24T19:36:34.647Z,4.93
2022-08-24T19:39:01.942Z,4.90
2022-08-24T19:41:36.749Z,5.30
2022-08-24T19:44:27.234Z,4.07
2022-08-24T19:46:55.651Z,4.53
2022-08-24T19:49:22.897Z,4.90
2022-08-24T19:51:50.948Z,4.55
2022-08-24T19:54:18.056Z,4.47
2022-08-24T19:56:45.447Z,3.97
2022-08-24T19:59:34.367Z,3.70
2022-08-24T20:02:01.733Z,3.92
2022-08-24T20:04:28.946Z,3.70
2022-08-24T20:06:56.210Z,4.10
2022-08-24T20:09:23.742Z,3.75
2022-08-24T20:11:51.733Z,3.80
2022-08-24T20:14:18.813Z,4.25
2022-08-24T20:16:46.119Z,4.32
2022-08-24T20:19:13.393Z,4.63
2022-08-24T20:21:40.754Z,3.92
2022-08-24T20:24:08.636Z,4.18
2022-08-24T20:26:39.152Z,3.67
2022-08-24T20:29:06.381Z,4.13
2022-08-24T20:31:33.494Z,3.92
2022-08-24T20:34:00.907Z,4.18
2022-08-24T20:36:27.997Z,4.30
2022-08-24T20:38:56.735Z,4.25
2022-08-24T20:41:24.059Z,4.70
2022-08-24T20:43:51.146Z,4.35
2022-08-24T20:46:18.310Z,4.55
2022-08-24T20:48:46.166Z,5.00
2022-08-24T20:51:22.856Z,4.82
2022-08-24T20:53:49.941Z,4.75
2022-08-24T20:56:30.784Z,4.95
2022-08-24T20:58:58.435Z,5.57
2022-08-24T21:01:25.572Z,4.95
2022-08-24T21:03:53.010Z,4.80
2022-08-24T21:06:20.392Z,5.00
2022-08-24T21:08:48.818Z,5.63
2022-08-24T21:11:16.213Z,6.38
2022-08-24T21:13:43.424Z,5.43
2022-08-24T21:16:14.894Z,5.10
2022-08-24T21:18:46.843Z,4.60
2022-08-24T21:21:14.048Z,5.03
2022-08-24T21:23:41.139Z,5.47
2022-08-24T21:26:09.776Z,5.00
2022-08-24T21:28:37.299Z,4.50
2022-08-24T21:31:06.420Z,4.90
2022-08-24T21:33:52.718Z,4.78
2022-08-24T21:36:23.208Z,4.38
2022-08-24T21:38:51.865Z,4.65
2022-08-24T21:41:20.743Z,4.90
2022-08-24T21:43:47.847Z,5.00
2022-08-24T21:46:15.170Z,5.05
2022-08-24T21:48:42.333Z,5.45
2022-08-24T21:51:09.781Z,4.75
2022-08-24T21:53:37.081Z,4.63
2022-08-24T21:56:07.261Z,4.75
2022-08-24T21:58:34.326Z,5.38
2022-08-24T22:01:03.173Z,4.35
2022-08-24T22:03:31.524Z,5.03
2022-08-24T22:06:08.423Z,4.30
2022-08-24T22:08:35.595Z,4.72
2022-08-24T22:11:02.675Z,4.75
2022-08-24T22:13:29.732Z,4.68
2022-08-24T22:15:56.853Z,4.60
2022-08-24T22:18:24.163Z,4.55
2022-08-24T22:20:51.251Z,4.78
2022-08-24T22:23:18.539Z,5.28
2022-08-24T22:25:46.050Z,5.30
2022-08-24T22:28:13.077Z,5.22
2022-08-24T22:30:40.170Z,5.15
2022-08-24T22:33:07.229Z,5.13
2022-08-24T22:35:34.379Z,5.63
2022-08-24T22:38:12.085Z,5.18
2022-08-24T22:40:39.313Z,5.18
2022-08-24T22:43:06.500Z,5.68
2022-08-24T22:45:33.748Z,4.85
2022-08-24T22:48:00.785Z,5.18
2022-08-24T22:50:28.000Z,4.65
2022-08-24T22:52:55.085Z,4.90
2022-08-24T22:55:23.416Z,4.75
2022-08-24T22:57:51.398Z,4.97
2022-08-24T23:00:18.706Z,5.10
2022-08-24T23:02:45.775Z,4.80
2022-08-24T23:05:13.299Z,5.45
2022-08-24T23:07:40.366Z,4.97
2022-08-24T23:10:07.894Z,5.25
2022-08-24T23:12:35.010Z,4.90
2022-08-24T23:15:02.243Z,5.00
2022-08-24T23:17:29.345Z,4.93
2022-08-24T23:20:06.168Z,4.90
2022-08-24T23:22:35.194Z,5.22
2022-08-24T23:25:02.314Z,5.30
2022-08-24T23:27:32.895Z,4.93
2022-08-24T23:30:05.957Z,4.93
2022-08-24T23:32:33.612Z,4.85
2022-08-24T23:35:00.677Z,4.70
2022-08-24T23:37:27.775Z,5.30
2022-08-24T23:39:54.917Z,5.00
2022-08-24T23:42:22.042Z,5.30
2022-08-24T23:44:49.143Z,4.97
2022-08-24T23:47:16.692Z,5.15
2022-08-24T23:49:43.954Z,5.00
2022-08-24T23:52:26.400Z,5.05
2022-08-24T23:54:54.297Z,5.43
2022-08-24T23:57:21.363Z,5.05
2022-08-24T23:59:48.527Z,5.20
